Terminal Aerodrome Forecast
Issued by NWS

Home | Current Version | Previous Version | Text Only | Print | Product List | Glossary On
Versions: 1 2 3 4 5 6 7 8 9 10 11 12 13
000
FTUS44 KLIX 151741
TAFMSY
TAF
KMSY 151741Z 1518/1624 36010KT P6SM -RA OVC110
     FM152000 36010KT P6SM BKN080 OVC150
     FM160400 03007KT P6SM BKN200
     FM161300 06008KT P6SM BKN130 BKN200
     FM161800 08008KT P6SM BKN070
     FM162100 09009KT P6SM BKN025=

USA.gov is the U.S. government's official web portal to all federal, state and local government web resources and services.